Time;durP1;ratioP1;P1;durP2;ratioP2;P2;SDS_P1;SDS_P2;PMS_P1;PMS_P2;Temp;Humidity;BMP_temperature;BMP_pressure;BME280_temperature;BME280_humidity;BME280_pressure;Samples;Min_cycle;Max_cycle;Signal;HPM_P1;HPM_P2
2023/03/07 00:00:04;;;;;;;70.40;27.90;;;;;;;-145.18;100.00;60484.78;5072459;28;20028;-65
2023/03/07 00:02:30;;;;;;;65.13;26.70;;;;;;;-145.18;100.00;60484.78;5070345;28;20111;-65
2023/03/07 00:04:55;;;;;;;66.13;26.33;;;;;;;-145.18;100.00;60484.78;5071864;28;20104;-65
2023/03/07 00:07:21;;;;;;;62.37;24.20;;;;;;;-145.18;100.00;60484.78;5071370;28;20024;-65
2023/03/07 00:09:46;;;;;;;59.97;24.67;;;;;;;-145.18;100.00;60484.78;5071253;28;20134;-65
2023/03/07 00:12:12;;;;;;;66.20;26.50;;;;;;;-145.18;100.00;60484.78;5070071;28;20081;-65
2023/03/07 00:14:38;;;;;;;74.70;26.83;;;;;;;-145.18;100.00;60484.78;5072579;28;20028;-64
2023/03/07 00:17:03;;;;;;;67.50;27.67;;;;;;;-145.18;100.00;60484.78;5071632;28;20032;-64
2023/03/07 00:19:28;;;;;;;67.07;29.00;;;;;;;-145.18;100.00;60484.78;5068897;28;20033;-64
2023/03/07 00:21:54;;;;;;;70.73;27.47;;;;;;;-145.18;100.00;60484.78;5071635;28;20020;-64
2023/03/07 00:24:19;;;;;;;58.57;23.40;;;;;;;-145.18;100.00;60484.78;5069126;28;20021;-64
2023/03/07 00:26:45;;;;;;;56.33;24.80;;;;;;;-145.18;100.00;60484.78;5070206;28;20120;-64
2023/03/07 00:29:10;;;;;;;64.10;25.93;;;;;;;-145.18;100.00;60484.78;5070391;28;20029;-65
2023/03/07 00:31:36;;;;;;;53.50;21.07;;;;;;;-145.18;100.00;60484.78;5071884;28;20513;-65
2023/03/07 00:34:03;;;;;;;54.10;21.97;;;;;;;-145.18;100.00;60484.78;5071564;28;20154;-64
2023/03/07 00:36:28;;;;;;;47.93;20.37;;;;;;;-145.18;100.00;60484.78;5071167;28;20036;-64
2023/03/07 00:38:54;;;;;;;49.27;20.57;;;;;;;-145.18;100.00;60484.78;5072072;28;20028;-64
2023/03/07 00:41:25;;;;;;;53.00;21.20;;;;;;;-145.18;100.00;60484.78;5071548;28;20024;-65
2023/03/07 00:43:51;;;;;;;58.30;24.73;;;;;;;-145.18;100.00;60484.78;5086464;28;20075;-63
2023/03/07 00:46:18;;;;;;;39.50;16.93;;;;;;;-145.18;100.00;60484.78;5071816;28;20082;-65
2023/03/07 00:48:44;;;;;;;52.53;23.40;;;;;;;-145.18;100.00;60484.78;5069441;28;20028;-65
2023/03/07 00:51:12;;;;;;;42.43;18.90;;;;;;;-145.18;100.00;60484.78;5071553;28;20059;-64
2023/03/07 00:53:38;;;;;;;32.57;14.83;;;;;;;-145.18;100.00;60484.78;5071125;28;20597;-65
2023/03/07 00:56:06;;;;;;;41.73;18.37;;;;;;;-145.18;100.00;60484.78;5071570;28;20029;-64
2023/03/07 00:58:33;;;;;;;37.47;16.67;;;;;;;-145.18;100.00;60484.78;5066606;28;20740;-64
2023/03/07 01:00:59;;;;;;;44.13;18.57;;;;;;;-145.18;100.00;60484.78;5070962;28;20121;-64
2023/03/07 01:03:25;;;;;;;46.33;20.00;;;;;;;-145.18;100.00;60484.78;5071188;28;20492;-65
2023/03/07 01:05:52;;;;;;;32.37;13.73;;;;;;;-145.18;100.00;60484.78;5071127;28;20348;-65
2023/03/07 01:08:19;;;;;;;37.00;15.30;;;;;;;-145.18;100.00;60484.78;5069876;28;20360;-64
2023/03/07 01:10:44;;;;;;;39.37;16.73;;;;;;;-145.18;100.00;60484.78;5070468;28;20032;-65
2023/03/07 01:13:11;;;;;;;35.90;15.20;;;;;;;-145.18;100.00;60484.78;5070366;28;20107;-65
2023/03/07 01:15:37;;;;;;;39.90;16.93;;;;;;;-145.18;100.00;60484.78;5070890;28;20024;-65
2023/03/07 01:18:03;;;;;;;21.57;11.70;;;;;;;-145.18;100.00;60484.78;5069334;28;20031;-63
2023/03/07 01:20:31;;;;;;;37.40;15.20;;;;;;;-145.18;100.00;60484.78;5069606;28;20484;-65
2023/03/07 01:22:57;;;;;;;33.13;12.77;;;;;;;-145.18;100.00;60484.78;5069173;28;20103;-64
2023/03/07 01:25:22;;;;;;;25.67;11.40;;;;;;;-145.18;100.00;60484.78;5070944;28;20103;-64
2023/03/07 01:27:48;;;;;;;38.93;16.87;;;;;;;-145.18;100.00;60484.78;5064449;28;20028;-64
2023/03/07 01:30:13;;;;;;;31.63;14.03;;;;;;;-145.18;100.00;60484.78;5068872;28;20032;-64
2023/03/07 01:32:38;;;;;;;26.87;11.47;;;;;;;-145.18;100.00;60484.78;5070055;28;20157;-64
2023/03/07 01:35:04;;;;;;;20.53;8.93;;;;;;;-145.18;100.00;60484.78;5068422;28;20111;-65
2023/03/07 01:37:29;;;;;;;22.60;10.07;;;;;;;-145.18;100.00;60484.78;5065968;28;20132;-66
2023/03/07 01:39:55;;;;;;;22.00;9.17;;;;;;;-145.18;100.00;60484.78;5068456;28;20033;-64
2023/03/07 01:42:21;;;;;;;32.37;13.70;;;;;;;-145.18;100.00;60484.78;5069065;28;20020;-65
2023/03/07 01:45:04;;;;;;;26.37;12.97;;;;;;;-145.18;100.00;60484.78;5070134;28;20043;-64
2023/03/07 01:47:30;;;;;;;33.93;12.03;;;;;;;-145.18;100.00;60484.78;5068384;28;20035;-65
2023/03/07 01:49:58;;;;;;;24.00;11.63;;;;;;;-145.18;100.00;60484.78;5070099;28;20020;-65
2023/03/07 01:52:28;;;;;;;24.83;9.83;;;;;;;-145.18;100.00;60484.78;5067359;28;20028;-65
2023/03/07 01:55:03;;;;;;;33.10;15.10;;;;;;;-145.18;100.00;60484.78;5065984;28;20383;-66
2023/03/07 01:57:33;;;;;;;29.27;11.53;;;;;;;-145.18;100.00;60484.78;5067360;28;20060;-64
2023/03/07 02:00:07;;;;;;;25.30;12.17;;;;;;;-145.18;100.00;60484.78;5068550;28;20443;-64
2023/03/07 02:02:34;;;;;;;22.23;9.07;;;;;;;-145.18;100.00;60484.78;5079286;28;20447;-67
2023/03/07 02:05:09;;;;;;;27.37;12.13;;;;;;;-145.18;100.00;60484.78;5066344;28;20028;-67
2023/03/07 02:07:43;;;;;;;19.10;9.10;;;;;;;-145.18;100.00;60484.78;5068977;28;20097;-67
2023/03/07 02:10:12;;;;;;;21.00;9.93;;;;;;;-145.18;100.00;60484.78;5069676;28;20074;-67
2023/03/07 02:12:39;;;;;;;24.70;11.67;;;;;;;-145.18;100.00;60484.78;5066886;28;20032;-67
2023/03/07 02:15:07;;;;;;;21.63;8.50;;;;;;;-145.18;100.00;60484.78;5068326;28;20071;-66
2023/03/07 02:17:32;;;;;;;21.53;10.73;;;;;;;-145.18;100.00;60484.78;5070011;28;20203;-67
2023/03/07 02:20:17;;;;;;;20.53;9.23;;;;;;;-145.18;100.00;60484.78;5070064;28;20483;-67
2023/03/07 02:22:43;;;;;;;18.40;8.70;;;;;;;-145.18;100.00;60484.78;5068939;28;20032;-67
2023/03/07 02:25:14;;;;;;;12.13;5.23;;;;;;;-145.18;100.00;60484.78;5068955;28;20027;-66
2023/03/07 02:27:40;;;;;;;9.50;4.07;;;;;;;-145.18;100.00;60484.78;5068817;28;20539;-66
2023/03/07 02:30:11;;;;;;;15.60;7.20;;;;;;;-145.18;100.00;60484.78;5069691;28;20122;-66
2023/03/07 02:32:36;;;;;;;13.68;6.68;;;;;;;-145.18;100.00;60484.78;5068372;28;20055;-66
2023/03/07 02:35:11;;;;;;;17.63;7.37;;;;;;;-145.18;100.00;60484.78;5068961;28;20048;-67
2023/03/07 02:37:38;;;;;;;14.37;7.17;;;;;;;-145.18;100.00;60484.78;5069571;28;20162;-67
2023/03/07 02:40:07;;;;;;;17.00;8.23;;;;;;;-145.18;100.00;60484.78;5069787;28;20024;-67
2023/03/07 02:42:36;;;;;;;20.23;8.83;;;;;;;-145.18;100.00;60484.78;5067877;28;20103;-67
2023/03/07 02:45:05;;;;;;;20.77;9.80;;;;;;;-145.18;100.00;60484.78;5067568;28;20025;-67
2023/03/07 02:47:30;;;;;;;19.70;9.63;;;;;;;-145.18;100.00;60484.78;5068893;28;20063;-67
2023/03/07 02:49:56;;;;;;;17.67;9.33;;;;;;;-145.18;100.00;60484.78;5065830;28;20476;-67
2023/03/07 02:52:22;;;;;;;16.83;7.87;;;;;;;-145.18;100.00;60484.78;5068111;28;20024;-67
2023/03/07 02:54:47;;;;;;;20.13;9.70;;;;;;;-145.18;100.00;60484.78;5070059;28;20029;-67
2023/03/07 02:57:14;;;;;;;14.97;7.23;;;;;;;-145.18;100.00;60484.78;5068196;28;20038;-66
2023/03/07 02:59:40;;;;;;;20.17;8.37;;;;;;;-145.18;100.00;60484.78;5067264;28;20557;-67
2023/03/07 03:02:05;;;;;;;18.77;7.80;;;;;;;-145.18;100.00;60484.78;5069032;28;20016;-67
2023/03/07 03:04:31;;;;;;;13.37;6.27;;;;;;;-145.18;100.00;60484.78;5070039;28;20021;-67
2023/03/07 03:06:56;;;;;;;12.67;6.07;;;;;;;-145.18;100.00;60484.78;5070055;28;20033;-67
2023/03/07 03:09:22;;;;;;;12.70;5.40;;;;;;;-145.18;100.00;60484.78;5069650;28;20012;-66
2023/03/07 03:11:47;;;;;;;12.23;5.40;;;;;;;-145.18;100.00;60484.78;5068154;28;20379;-66
2023/03/07 03:14:12;;;;;;;16.80;7.77;;;;;;;-145.18;100.00;60484.78;5072275;28;20028;-67
2023/03/07 03:16:39;;;;;;;15.40;7.50;;;;;;;-145.18;100.00;60484.78;5066363;28;20384;-67
2023/03/07 03:19:05;;;;;;;18.10;6.53;;;;;;;-145.18;100.00;60484.78;5069392;28;20024;-67
2023/03/07 03:21:30;;;;;;;14.53;7.17;;;;;;;-145.18;100.00;60484.78;5069408;28;20024;-66
2023/03/07 03:23:55;;;;;;;13.37;5.93;;;;;;;-145.18;100.00;60484.78;5068860;28;20379;-66
2023/03/07 03:26:21;;;;;;;14.20;7.30;;;;;;;-145.18;100.00;60484.78;5067633;28;20112;-66
2023/03/07 03:28:46;;;;;;;13.67;5.53;;;;;;;-145.18;100.00;60484.78;5068790;28;20027;-66
2023/03/07 03:31:15;;;;;;;12.93;5.60;;;;;;;-145.18;100.00;60484.78;5068163;28;20472;-66
2023/03/07 03:33:42;;;;;;;7.63;4.13;;;;;;;-145.18;100.00;60484.78;5070331;28;20083;-66
2023/03/07 03:36:15;;;;;;;15.43;6.27;;;;;;;-145.18;100.00;60484.78;5069946;28;20028;-67
2023/03/07 03:38:41;;;;;;;11.67;5.40;;;;;;;-145.18;100.00;60484.78;5069567;28;20460;-67
2023/03/07 03:41:10;;;;;;;8.53;3.87;;;;;;;-145.18;100.00;60484.78;5068071;28;20020;-66
2023/03/07 03:43:36;;;;;;;9.43;4.40;;;;;;;-145.18;100.00;60484.78;5068313;28;20445;-66
2023/03/07 03:46:02;;;;;;;8.37;4.00;;;;;;;-145.18;100.00;60484.78;5070032;28;20065;-66
2023/03/07 03:48:28;;;;;;;8.60;3.70;;;;;;;-145.18;100.00;60484.78;5071142;28;20055;-66
2023/03/07 03:51:05;;;;;;;6.70;3.07;;;;;;;-145.18;100.00;60484.78;5072419;28;20027;-66
2023/03/07 03:53:33;;;;;;;12.17;3.43;;;;;;;-145.18;100.00;60484.78;5072917;28;20025;-65
2023/03/07 03:56:00;;;;;;;6.47;2.83;;;;;;;-145.18;100.00;60484.78;5072992;28;20059;-64
2023/03/07 03:58:26;;;;;;;5.13;2.37;;;;;;;-145.18;100.00;60484.78;5072363;28;20520;-64
2023/03/07 04:00:51;;;;;;;8.37;2.93;;;;;;;-145.18;100.00;60484.78;5070141;28;20107;-64
2023/03/07 04:03:16;;;;;;;9.50;3.43;;;;;;;-145.18;100.00;60484.78;5072215;28;20024;-64
2023/03/07 04:05:42;;;;;;;7.17;2.83;;;;;;;-145.18;100.00;60484.78;5072523;28;20483;-64
2023/03/07 04:08:07;;;;;;;6.60;3.00;;;;;;;-145.18;100.00;60484.78;5072435;28;20023;-65
2023/03/07 04:10:32;;;;;;;6.07;2.60;;;;;;;-145.18;100.00;60484.78;5071525;28;20072;-64
2023/03/07 04:12:58;;;;;;;5.50;2.10;;;;;;;-145.18;100.00;60484.78;5071748;28;20510;-65
2023/03/07 04:15:23;;;;;;;5.50;2.03;;;;;;;-145.18;100.00;60484.78;5072921;28;20116;-64
2023/03/07 04:17:49;;;;;;;6.17;1.57;;;;;;;-145.18;100.00;60484.78;5072407;28;20722;-65
2023/03/07 04:20:16;;;;;;;10.60;2.17;;;;;;;-145.18;100.00;60484.78;5072328;28;20466;-65
2023/03/07 04:22:41;;;;;;;8.00;2.10;;;;;;;-145.18;100.00;60484.78;5071789;28;20031;-65
2023/03/07 04:25:07;;;;;;;7.40;1.33;;;;;;;-145.18;100.00;60484.78;5072356;28;20024;-64
2023/03/07 04:27:34;;;;;;;4.87;0.97;;;;;;;-145.18;100.00;60484.78;5068872;28;20035;-64
2023/03/07 04:29:59;;;;;;;4.00;1.27;;;;;;;-145.18;100.00;60484.78;5072634;28;20024;-65
2023/03/07 04:32:25;;;;;;;4.43;1.27;;;;;;;-145.18;100.00;60484.78;5071895;28;20375;-64
2023/03/07 04:34:50;;;;;;;4.43;1.60;;;;;;;-145.18;100.00;60484.78;5072131;28;20032;-65
2023/03/07 04:37:16;;;;;;;9.60;1.23;;;;;;;-145.18;100.00;60484.78;5071859;28;20024;-64
2023/03/07 04:39:41;;;;;;;12.10;1.90;;;;;;;-145.18;100.00;60484.78;5071179;28;20027;-64
2023/03/07 04:42:07;;;;;;;8.67;2.00;;;;;;;-145.18;100.00;60484.78;5065129;28;20016;-65
2023/03/07 04:44:32;;;;;;;3.03;1.20;;;;;;;-145.18;100.00;60484.78;5070423;28;20111;-64
2023/03/07 04:46:58;;;;;;;5.73;1.47;;;;;;;-145.18;100.00;60484.78;5071476;28;20024;-64
2023/03/07 04:49:23;;;;;;;6.77;1.60;;;;;;;-145.18;100.00;60484.78;5067023;28;20040;-63
2023/03/07 04:51:49;;;;;;;6.43;1.53;;;;;;;-145.18;100.00;60484.78;5072375;28;20016;-64
2023/03/07 04:54:14;;;;;;;5.20;1.47;;;;;;;-145.18;100.00;60484.78;5072117;28;20020;-63
2023/03/07 04:56:39;;;;;;;6.83;1.60;;;;;;;-145.18;100.00;60484.78;5070391;28;20115;-64
2023/03/07 04:59:05;;;;;;;9.23;1.87;;;;;;;-145.18;100.00;60484.78;5069815;28;20020;-64
2023/03/07 05:01:30;;;;;;;4.47;1.30;;;;;;;-145.18;100.00;60484.78;5071474;28;20476;-64
2023/03/07 05:03:55;;;;;;;7.23;1.60;;;;;;;-145.18;100.00;60484.78;5071548;28;20074;-64
2023/03/07 05:06:21;;;;;;;11.23;2.73;;;;;;;-145.18;100.00;60484.78;5071509;28;20070;-64
2023/03/07 05:08:46;;;;;;;6.27;1.50;;;;;;;-145.18;100.00;60484.78;5070493;28;20099;-63
2023/03/07 05:11:11;;;;;;;5.23;1.53;;;;;;;-145.18;100.00;60484.78;5071457;28;20495;-64
2023/03/07 05:13:37;;;;;;;4.53;1.10;;;;;;;-145.18;100.00;60484.78;5070617;28;20522;-63
2023/03/07 05:16:02;;;;;;;7.17;1.50;;;;;;;-145.18;100.00;60484.78;5070630;28;20541;-64
2023/03/07 05:18:28;;;;;;;4.80;1.30;;;;;;;-145.18;100.00;60484.78;5070350;28;20055;-64
2023/03/07 05:20:54;;;;;;;7.30;1.37;;;;;;;-145.18;100.00;60484.78;5066965;28;20377;-63
2023/03/07 05:23:19;;;;;;;8.17;2.07;;;;;;;-145.18;100.00;60484.78;5070377;28;20033;-64
2023/03/07 05:25:48;;;;;;;5.83;1.40;;;;;;;-145.18;100.00;60484.78;5071274;28;20028;-64
2023/03/07 05:28:15;;;;;;;5.10;1.57;;;;;;;-145.18;100.00;60484.78;5067072;28;20490;-62
2023/03/07 05:30:42;;;;;;;6.53;1.50;;;;;;;-145.18;100.00;60484.78;5070733;28;20468;-64
2023/03/07 05:33:07;;;;;;;7.80;1.90;;;;;;;-145.18;100.00;60484.78;5069302;28;20023;-64
2023/03/07 05:35:33;;;;;;;3.97;1.27;;;;;;;-145.18;100.00;60484.78;5070794;28;20391;-64
2023/03/07 05:37:59;;;;;;;13.27;1.73;;;;;;;-145.18;100.00;60484.78;5069489;28;20077;-63
2023/03/07 05:40:24;;;;;;;2.27;0.97;;;;;;;-145.18;100.00;60484.78;5070341;28;20109;-63
2023/03/07 05:42:50;;;;;;;6.90;1.53;;;;;;;-145.18;100.00;60484.78;5071718;28;20094;-63
2023/03/07 05:45:15;;;;;;;6.43;1.27;;;;;;;-145.18;100.00;60484.78;5067272;28;20039;-63
2023/03/07 05:47:40;;;;;;;10.80;1.63;;;;;;;-145.18;100.00;60484.78;5068322;28;20792;-64
2023/03/07 05:50:08;;;;;;;4.73;1.50;;;;;;;-145.18;100.00;60484.78;5069164;28;20020;-64
2023/03/07 05:52:33;;;;;;;4.63;1.50;;;;;;;-145.18;100.00;60484.78;5070893;28;20440;-64
2023/03/07 05:54:58;;;;;;;6.03;2.03;;;;;;;-145.18;100.00;60484.78;5068245;28;20036;-63
2023/03/07 05:57:24;;;;;;;7.63;1.13;;;;;;;-145.18;100.00;60484.78;5067872;28;20024;-63
2023/03/07 05:59:49;;;;;;;8.90;1.53;;;;;;;-145.18;100.00;60484.78;5068825;28;20032;-64
2023/03/07 06:02:15;;;;;;;9.60;1.70;;;;;;;-145.18;100.00;60484.78;5065571;28;20118;-63
2023/03/07 06:04:40;;;;;;;8.97;1.63;;;;;;;-145.18;100.00;60484.78;5073657;28;20058;-63
2023/03/07 06:07:05;;;;;;;10.57;1.70;;;;;;;-145.18;100.00;60484.78;5069678;28;20024;-64
2023/03/07 06:09:31;;;;;;;6.33;1.63;;;;;;;-145.18;100.00;60484.78;5064394;28;20016;-64
2023/03/07 06:11:56;;;;;;;12.50;2.83;;;;;;;-145.18;100.00;60484.78;5064810;28;20027;-64
2023/03/07 06:14:22;;;;;;;8.60;1.83;;;;;;;-145.18;100.00;60484.78;5071706;28;20028;-64
2023/03/07 06:16:48;;;;;;;7.53;1.73;;;;;;;-145.18;100.00;60484.78;5071038;28;20059;-63
2023/03/07 06:19:13;;;;;;;7.50;1.60;;;;;;;-145.18;100.00;60484.78;5071906;28;20523;-63
2023/03/07 06:21:39;;;;;;;9.33;1.67;;;;;;;-145.18;100.00;60484.78;5072057;28;20043;-63
2023/03/07 06:24:06;;;;;;;7.27;1.73;;;;;;;-145.18;100.00;60484.78;5071618;28;20048;-64
2023/03/07 06:26:31;;;;;;;8.77;1.47;;;;;;;-145.18;100.00;60484.78;5071398;28;20070;-64
2023/03/07 06:28:57;;;;;;;6.00;1.67;;;;;;;-145.18;100.00;60484.78;5071516;28;20020;-64
2023/03/07 06:31:22;;;;;;;5.60;1.27;;;;;;;-145.18;100.00;60484.78;5071178;28;20047;-62
2023/03/07 06:33:48;;;;;;;7.23;1.50;;;;;;;-145.18;100.00;60484.78;5071321;28;20360;-63
2023/03/07 06:36:16;;;;;;;7.13;1.57;;;;;;;-145.18;100.00;60484.78;5071689;28;20543;-63
2023/03/07 06:38:41;;;;;;;5.83;1.17;;;;;;;-145.18;100.00;60484.78;5071711;28;20093;-64
2023/03/07 06:41:07;;;;;;;6.30;1.30;;;;;;;-145.18;100.00;60484.78;5071660;28;20020;-63
2023/03/07 06:43:33;;;;;;;9.23;1.70;;;;;;;-145.18;100.00;60484.78;5053325;28;20527;-63
2023/03/07 06:45:59;;;;;;;4.60;1.40;;;;;;;-145.18;100.00;60484.78;5071226;28;20503;-64
2023/03/07 06:48:25;;;;;;;6.33;1.13;;;;;;;-145.18;100.00;60484.78;5071364;28;20078;-63
2023/03/07 06:50:50;;;;;;;5.33;1.20;;;;;;;-145.18;100.00;60484.78;5071295;28;20020;-64
2023/03/07 06:53:16;;;;;;;5.80;1.53;;;;;;;-145.18;100.00;60484.78;5071254;28;20028;-63
2023/03/07 06:55:42;;;;;;;9.47;1.73;;;;;;;-145.18;100.00;60484.78;5071523;28;20506;-63
2023/03/07 06:58:07;;;;;;;7.73;1.70;;;;;;;-145.18;100.00;60484.78;5071344;28;20074;-63
2023/03/07 07:00:33;;;;;;;7.70;1.50;;;;;;;-145.18;100.00;60484.78;5071381;28;20036;-63
2023/03/07 07:02:58;;;;;;;5.13;1.50;;;;;;;-145.18;100.00;60484.78;5071019;28;20067;-63
2023/03/07 07:05:23;;;;;;;6.13;1.40;;;;;;;-145.18;100.00;60484.78;5070860;28;20174;-63
2023/03/07 07:07:49;;;;;;;6.57;2.23;;;;;;;-145.18;100.00;60484.78;5071486;28;20012;-63
2023/03/07 07:10:14;;;;;;;13.20;1.57;;;;;;;-145.18;100.00;60484.78;5071267;28;20431;-63
2023/03/07 07:12:40;;;;;;;7.10;1.83;;;;;;;-145.18;100.00;60484.78;5071589;28;20117;-63
2023/03/07 07:15:06;;;;;;;6.53;1.47;;;;;;;-145.18;100.00;60484.78;5071240;28;20032;-63
2023/03/07 07:17:34;;;;;;;6.20;1.60;;;;;;;-145.18;100.00;60484.78;5070580;28;20548;-64
2023/03/07 07:20:04;;;;;;;7.97;1.80;;;;;;;-145.18;100.00;60484.78;5071035;28;20038;-63
2023/03/07 07:22:30;;;;;;;6.83;1.37;;;;;;;-145.18;100.00;60484.78;5073693;28;20023;-63
2023/03/07 07:24:55;;;;;;;5.53;1.10;;;;;;;-145.18;100.00;60484.78;5072926;28;20021;-64
2023/03/07 07:27:20;;;;;;;10.17;1.80;;;;;;;-145.18;100.00;60484.78;5074412;28;20036;-64
2023/03/07 07:29:46;;;;;;;11.27;1.70;;;;;;;-145.18;100.00;60484.78;5074448;28;20089;-63
2023/03/07 07:32:11;;;;;;;6.27;1.50;;;;;;;-145.18;100.00;60484.78;5074498;28;20031;-63
2023/03/07 07:34:37;;;;;;;6.23;1.70;;;;;;;-145.18;100.00;60484.78;5074526;28;20051;-63
2023/03/07 07:37:02;;;;;;;10.17;1.77;;;;;;;-145.18;100.00;60484.78;5073798;28;20074;-63
2023/03/07 07:39:27;;;;;;;4.70;1.00;;;;;;;-145.18;100.00;60484.78;5073781;28;20035;-63
2023/03/07 07:41:53;;;;;;;9.63;1.80;;;;;;;-145.18;100.00;60484.78;5071966;28;20021;-64
2023/03/07 07:44:18;;;;;;;11.40;1.70;;;;;;;-145.18;100.00;60484.78;5074520;28;20488;-63
2023/03/07 07:46:43;;;;;;;6.90;2.00;;;;;;;-145.18;100.00;60484.78;5073204;28;20021;-64
2023/03/07 07:49:09;;;;;;;4.87;1.30;;;;;;;-145.18;100.00;60484.78;5073607;28;20103;-63
2023/03/07 07:51:34;;;;;;;6.70;1.17;;;;;;;-145.18;100.00;60484.78;5074477;28;20092;-62
2023/03/07 07:54:00;;;;;;;10.97;1.30;;;;;;;-145.18;100.00;60484.78;5071343;28;20053;-64
2023/03/07 07:56:25;;;;;;;5.30;1.50;;;;;;;-145.18;100.00;60484.78;5073671;28;20021;-63
2023/03/07 07:58:51;;;;;;;5.27;1.60;;;;;;;-145.18;100.00;60484.78;5074408;28;20020;-63
2023/03/07 08:01:22;;;;;;;4.37;1.77;;;;;;;-145.18;100.00;60484.78;5073972;28;20467;-64
2023/03/07 08:03:48;;;;;;;10.30;1.67;;;;;;;-145.18;100.00;60484.78;5060886;28;20029;-64
2023/03/07 08:06:20;;;;;;;8.20;1.87;;;;;;;-145.18;100.00;60484.78;5055243;28;20491;-64
2023/03/07 08:08:47;;;;;;;7.50;1.50;;;;;;;-145.18;100.00;60484.78;5074176;28;20059;-63
2023/03/07 08:11:13;;;;;;;9.87;1.97;;;;;;;-145.18;100.00;60484.78;5074462;28;20024;-64
2023/03/07 08:13:38;;;;;;;5.27;1.20;;;;;;;-145.18;100.00;60484.78;5073640;28;20036;-63
2023/03/07 08:16:19;;;;;;;8.37;1.47;;;;;;;-145.18;100.00;60484.78;5073573;28;20046;-64
2023/03/07 08:18:50;;;;;;;6.47;1.47;;;;;;;-145.18;100.00;60484.78;5073753;28;20044;-64
2023/03/07 08:21:15;;;;;;;9.15;1.45;;;;;;;-145.18;100.00;60484.78;5073726;28;20024;-64
2023/03/07 08:23:41;;;;;;;10.00;1.53;;;;;;;-145.18;100.00;60484.78;5073787;28;20115;-63
2023/03/07 08:26:08;;;;;;;8.37;1.50;;;;;;;-145.18;100.00;60484.78;5073669;28;20021;-64
2023/03/07 08:28:35;;;;;;;32.00;1.83;;;;;;;-145.18;100.00;60484.78;5073767;28;20542;-64
2023/03/07 08:31:15;;;;;;;6.33;1.13;;;;;;;-145.18;100.00;60484.78;5073287;28;20383;-64
2023/03/07 08:33:41;;;;;;;7.20;1.43;;;;;;;-145.18;100.00;60484.78;5073629;28;20506;-63
2023/03/07 08:36:08;;;;;;;10.60;2.13;;;;;;;-145.18;100.00;60484.78;5073443;28;20471;-65
2023/03/07 08:38:33;;;;;;;11.27;2.40;;;;;;;-145.18;100.00;60484.78;5073129;28;20028;-65
2023/03/07 08:41:04;;;;;;;7.50;1.53;;;;;;;-145.18;100.00;60484.78;5073763;28;20025;-65
2023/03/07 08:43:32;;;;;;;6.55;1.55;;;;;;;-145.18;100.00;60484.78;5073505;28;20407;-64
2023/03/07 08:46:01;;;;;;;6.23;2.07;;;;;;;-145.18;100.00;60484.78;5072890;28;20024;-64
2023/03/07 08:48:27;;;;;;;11.27;1.30;;;;;;;-145.18;100.00;60484.78;5073288;28;20095;-63
2023/03/07 08:50:53;;;;;;;9.20;1.23;;;;;;;-145.18;100.00;60484.78;5073031;28;20119;-64
2023/03/07 08:53:19;;;;;;;4.80;1.40;;;;;;;-145.18;100.00;60484.78;5072376;28;20028;-64
2023/03/07 08:55:46;;;;;;;4.60;1.43;;;;;;;-145.18;100.00;60484.78;5072339;28;20060;-64
2023/03/07 08:58:15;;;;;;;8.80;1.73;;;;;;;-145.18;100.00;60484.78;5072303;28;20020;-64
2023/03/07 09:00:41;;;;;;;3.73;1.73;;;;;;;-145.18;100.00;60484.78;5071611;28;20493;-64
2023/03/07 09:03:06;;;;;;;6.80;1.40;;;;;;;-145.18;100.00;60484.78;5071804;28;20028;-64
2023/03/07 09:05:36;;;;;;;13.67;3.27;;;;;;;-145.18;100.00;60484.78;5070719;28;20456;-65
2023/03/07 09:08:02;;;;;;;5.57;1.50;;;;;;;-145.18;100.00;60484.78;5071160;28;20518;-65
2023/03/07 09:10:27;;;;;;;7.27;1.30;;;;;;;-145.18;100.00;60484.78;5072327;28;20032;-63
2023/03/07 09:12:54;;;;;;;5.73;1.40;;;;;;;-145.18;100.00;60484.78;5072023;28;20032;-65
2023/03/07 09:15:20;;;;;;;6.33;1.60;;;;;;;-145.18;100.00;60484.78;5072090;28;20525;-64
2023/03/07 09:17:45;;;;;;;4.27;1.63;;;;;;;-145.18;100.00;60484.78;5070842;28;20031;-63
2023/03/07 09:20:12;;;;;;;4.67;1.30;;;;;;;-145.18;100.00;60484.78;5064941;28;20021;-64
2023/03/07 09:22:38;;;;;;;6.07;1.50;;;;;;;-145.18;100.00;60484.78;5072277;28;20099;-64
2023/03/07 09:25:04;;;;;;;7.03;1.43;;;;;;;-145.18;100.00;60484.78;5072579;28;20416;-64
2023/03/07 09:27:29;;;;;;;6.20;1.60;;;;;;;-145.18;100.00;60484.78;5071772;28;20430;-64
2023/03/07 09:29:54;;;;;;;5.30;1.30;;;;;;;-145.18;100.00;60484.78;5071941;28;20406;-64
2023/03/07 09:32:20;;;;;;;7.10;1.60;;;;;;;-145.18;100.00;60484.78;5071550;28;20380;-66
2023/03/07 09:34:46;;;;;;;5.47;1.63;;;;;;;-145.18;100.00;60484.78;5072197;28;20020;-66
2023/03/07 09:37:11;;;;;;;5.77;1.30;;;;;;;-145.18;100.00;60484.78;5070751;28;20107;-66
2023/03/07 09:39:37;;;;;;;8.53;1.80;;;;;;;-145.18;100.00;60484.78;5053114;28;20028;-66
2023/03/07 09:42:18;;;;;;;7.73;1.57;;;;;;;-145.18;100.00;60484.78;5071362;28;20040;-66
2023/03/07 09:45:02;;;;;;;8.40;1.35;;;;;;;-145.18;100.00;60484.78;5052341;28;20495;-66
2023/03/07 09:47:54;;;;;;;8.17;1.50;;;;;;;-145.18;100.00;60484.78;5069654;28;20033;-64
2023/03/07 09:50:32;;;;;;;2.90;1.02;;;;;;;-145.18;100.00;60484.78;5069339;28;20099;-65
2023/03/07 09:53:02;;;;;;;4.93;1.10;;;;;;;-145.18;100.00;60484.78;5069120;28;20121;-64
2023/03/07 09:55:30;;;;;;;5.80;1.10;;;;;;;-145.18;100.00;60484.78;5068812;28;20546;-66
2023/03/07 09:58:06;;;;;;;3.83;1.40;;;;;;;-145.18;100.00;60484.78;5070181;28;20032;-66
2023/03/07 10:00:39;;;;;;;3.80;1.07;;;;;;;-145.18;100.00;60484.78;5071858;28;20055;-65
2023/03/07 10:03:17;;;;;;;4.40;1.03;;;;;;;-145.18;100.00;60484.78;5069702;28;20028;-65
2023/03/07 10:05:47;;;;;;;6.90;1.40;;;;;;;-145.18;100.00;60484.78;5072028;28;20539;-66
2023/03/07 10:08:23;;;;;;;4.05;1.48;;;;;;;-145.18;100.00;60484.78;5071994;28;20028;-64
2023/03/07 10:11:07;;;;;;;3.73;1.10;;;;;;;-145.18;100.00;60484.78;5071618;28;20036;-66
2023/03/07 10:13:55;;;;;;;4.20;1.00;;;;;;;-145.18;100.00;60484.78;5071929;28;20059;-65
2023/03/07 10:16:35;;;;;;;8.13;1.67;;;;;;;-145.18;100.00;60484.78;5071373;28;20487;-64
2023/03/07 10:19:24;;;;;;;6.20;1.30;;;;;;;-145.18;100.00;60484.78;5071715;28;20027;-66
2023/03/07 10:22:26;;;;;;;4.90;1.13;;;;;;;-145.18;100.00;60484.78;5071641;28;20024;-65
2023/03/07 10:25:10;;;;;;;3.37;0.90;;;;;;;-145.18;100.00;60484.78;5071950;28;20567;-63
2023/03/07 10:27:37;;;;;;;6.27;1.40;;;;;;;-145.18;100.00;60484.78;5071623;28;20028;-63
2023/03/07 10:30:14;;;;;;;8.23;1.87;;;;;;;-145.18;100.00;60484.78;5071401;28;20058;-65
2023/03/07 10:32:46;;;;;;;6.23;1.37;;;;;;;-145.18;100.00;60484.78;5053180;28;20094;-66
2023/03/07 10:35:12;;;;;;;;;;;;;;;-145.18;100.00;60484.78;5072437;28;20361;-67
2023/03/07 10:37:54;;;;;;;7.03;1.50;;;;;;;-145.18;100.00;60484.78;5071594;28;20445;-65
2023/03/07 10:40:33;;;;;;;5.93;1.53;;;;;;;-145.18;100.00;60484.78;5070407;28;20092;-64
2023/03/07 10:42:59;;;;;;;8.50;1.33;;;;;;;-145.18;100.00;60484.78;5070941;28;20036;-66
2023/03/07 10:45:29;;;;;;;7.63;1.40;;;;;;;-145.18;100.00;60484.78;5071619;28;20027;-63
2023/03/07 10:47:59;;;;;;;4.50;1.07;;;;;;;-145.18;100.00;60484.78;5070729;28;20028;-62
2023/03/07 10:50:43;;;;;;;3.90;1.30;;;;;;;-145.18;100.00;60484.78;5070743;28;20115;-62
2023/03/07 10:53:24;;;;;;;3.33;1.13;;;;;;;-145.18;100.00;60484.78;5063452;28;20385;-62
2023/03/07 10:55:49;;;;;;;3.00;1.20;;;;;;;-145.18;100.00;60484.78;5072188;28;20378;-65
2023/03/07 10:58:18;;;;;;;4.17;1.13;;;;;;;-145.18;100.00;60484.78;5074441;28;20029;-62
2023/03/07 11:00:56;;;;;;;4.17;1.13;;;;;;;-145.18;100.00;60484.78;5074954;28;20063;-62
2023/03/07 11:03:38;;;;;;;6.23;1.30;;;;;;;-145.18;100.00;60484.78;5074710;28;20428;-65
2023/03/07 11:06:04;;;;;;;5.87;1.40;;;;;;;-145.18;100.00;60484.78;5058158;28;20732;-63